sensor_id;sensor_type;location;lat;lon;timestamp;pressure;altitude;pressure_sealevel;temperature;humidity
48404;BME280;34202;52.536;6.042;2023-12-20T00:01:33;101509.23;;;5.38;100.00
48404;BME280;34202;52.536;6.042;2023-12-20T00:06:33;101507.05;;;5.40;100.00
48404;BME280;34202;52.536;6.042;2023-12-20T00:11:34;101496.36;;;5.40;100.00
48404;BME280;34202;52.536;6.042;2023-12-20T00:16:34;101492.69;;;5.39;100.00
48404;BME280;34202;52.536;6.042;2023-12-20T00:21:34;101496.02;;;5.35;100.00
48404;BME280;34202;52.536;6.042;2023-12-20T00:26:35;101489.89;;;5.33;100.00
48404;BME280;34202;52.536;6.042;2023-12-20T00:31:35;101482.85;;;5.29;100.00
48404;BME280;34202;52.536;6.042;2023-12-20T00:36:36;101477.23;;;5.27;100.00
48404;BME280;34202;52.536;6.042;2023-12-20T00:41:37;101476.98;;;5.25;100.00
48404;BME280;34202;52.536;6.042;2023-12-20T00:46:37;101482.91;;;5.22;100.00
48404;BME280;34202;52.536;6.042;2023-12-20T00:51:37;101480.23;;;5.19;100.00
48404;BME280;34202;52.536;6.042;2023-12-20T00:56:38;101476.68;;;5.17;100.00
48404;BME280;34202;52.536;6.042;2023-12-20T01:01:38;101473.66;;;5.15;100.00
48404;BME280;34202;52.536;6.042;2023-12-20T01:06:39;101476.00;;;5.13;100.00
48404;BME280;34202;52.536;6.042;2023-12-20T01:11:39;101474.11;;;5.13;100.00
48404;BME280;34202;52.536;6.042;2023-12-20T01:16:39;101475.23;;;5.15;100.00
48404;BME280;34202;52.536;6.042;2023-12-20T01:21:40;101477.94;;;5.18;100.00
48404;BME280;34202;52.536;6.042;2023-12-20T01:26:40;101468.83;;;5.19;100.00
48404;BME280;34202;52.536;6.042;2023-12-20T01:31:41;101466.98;;;5.21;100.00
48404;BME280;34202;52.536;6.042;2023-12-20T01:36:42;101474.92;;;5.20;100.00
48404;BME280;34202;52.536;6.042;2023-12-20T01:41:43;101470.62;;;5.21;100.00
48404;BME280;34202;52.536;6.042;2023-12-20T01:46:44;101465.07;;;5.20;100.00
48404;BME280;34202;52.536;6.042;2023-12-20T01:51:45;101459.67;;;5.19;100.00
48404;BME280;34202;52.536;6.042;2023-12-20T01:56:46;101449.77;;;5.17;100.00
48404;BME280;34202;52.536;6.042;2023-12-20T02:01:47;101458.00;;;5.16;100.00
48404;BME280;34202;52.536;6.042;2023-12-20T02:06:48;101461.98;;;5.16;100.00
48404;BME280;34202;52.536;6.042;2023-12-20T02:11:50;101448.90;;;5.17;100.00
48404;BME280;34202;52.536;6.042;2023-12-20T02:16:50;101441.21;;;5.19;100.00
48404;BME280;34202;52.536;6.042;2023-12-20T02:22:05;101436.63;;;5.21;100.00
48404;BME280;34202;52.536;6.042;2023-12-20T02:27:06;101434.29;;;5.23;100.00
48404;BME280;34202;52.536;6.042;2023-12-20T02:32:07;101434.17;;;5.25;100.00
48404;BME280;34202;52.536;6.042;2023-12-20T02:37:08;101432.86;;;5.27;100.00
48404;BME280;34202;52.536;6.042;2023-12-20T02:42:08;101429.38;;;5.31;100.00
48404;BME280;34202;52.536;6.042;2023-12-20T02:47:08;101424.83;;;5.33;100.00
48404;BME280;34202;52.536;6.042;2023-12-20T02:52:09;101416.61;;;5.36;100.00
48404;BME280;34202;52.536;6.042;2023-12-20T02:57:09;101412.06;;;5.38;100.00
48404;BME280;34202;52.536;6.042;2023-12-20T03:02:09;101400.95;;;5.41;100.00
48404;BME280;34202;52.536;6.042;2023-12-20T03:07:10;101393.13;;;5.44;100.00
48404;BME280;34202;52.536;6.042;2023-12-20T03:12:12;101387.23;;;5.48;100.00
48404;BME280;34202;52.536;6.042;2023-12-20T03:17:12;101388.81;;;5.54;100.00
48404;BME280;34202;52.536;6.042;2023-12-20T03:22:12;101393.65;;;5.59;100.00
48404;BME280;34202;52.536;6.042;2023-12-20T03:27:13;101396.70;;;5.62;100.00
48404;BME280;34202;52.536;6.042;2023-12-20T03:32:13;101398.13;;;5.64;100.00
48404;BME280;34202;52.536;6.042;2023-12-20T03:37:13;101392.59;;;5.63;100.00
48404;BME280;34202;52.536;6.042;2023-12-20T03:42:14;101392.19;;;5.61;100.00
48404;BME280;34202;52.536;6.042;2023-12-20T03:47:14;101389.56;;;5.60;100.00
48404;BME280;34202;52.536;6.042;2023-12-20T03:52:14;101390.88;;;5.59;100.00
48404;BME280;34202;52.536;6.042;2023-12-20T03:57:15;101395.01;;;5.58;100.00
48404;BME280;34202;52.536;6.042;2023-12-20T04:02:15;101393.02;;;5.60;100.00
48404;BME280;34202;52.536;6.042;2023-12-20T04:07:18;101387.42;;;5.63;100.00
48404;BME280;34202;52.536;6.042;2023-12-20T04:12:18;101369.42;;;5.67;100.00
48404;BME280;34202;52.536;6.042;2023-12-20T04:17:19;101369.50;;;5.69;100.00
48404;BME280;34202;52.536;6.042;2023-12-20T04:22:20;101363.85;;;5.71;100.00
48404;BME280;34202;52.536;6.042;2023-12-20T04:27:20;101362.50;;;5.72;100.00
48404;BME280;34202;52.536;6.042;2023-12-20T04:32:20;101370.94;;;5.72;100.00
48404;BME280;34202;52.536;6.042;2023-12-20T04:37:21;101362.14;;;5.71;100.00
48404;BME280;34202;52.536;6.042;2023-12-20T04:42:21;101356.42;;;5.71;100.00
48404;BME280;34202;52.536;6.042;2023-12-20T04:47:21;101352.51;;;5.73;100.00
48404;BME280;34202;52.536;6.042;2023-12-20T04:52:22;101352.95;;;5.75;100.00
48404;BME280;34202;52.536;6.042;2023-12-20T04:57:23;101354.24;;;5.77;100.00
48404;BME280;34202;52.536;6.042;2023-12-20T05:02:23;101358.35;;;5.82;100.00
48404;BME280;34202;52.536;6.042;2023-12-20T05:07:23;101366.91;;;5.85;100.00
48404;BME280;34202;52.536;6.042;2023-12-20T05:12:24;101358.36;;;5.87;100.00
48404;BME280;34202;52.536;6.042;2023-12-20T05:17:24;101348.06;;;5.89;100.00
48404;BME280;34202;52.536;6.042;2023-12-20T05:22:24;101344.09;;;5.89;100.00
48404;BME280;34202;52.536;6.042;2023-12-20T05:27:25;101352.03;;;5.89;100.00
48404;BME280;34202;52.536;6.042;2023-12-20T05:32:25;101352.24;;;5.90;100.00
48404;BME280;34202;52.536;6.042;2023-12-20T05:37:26;101344.91;;;5.93;100.00
48404;BME280;34202;52.536;6.042;2023-12-20T05:42:26;101351.45;;;5.96;100.00
48404;BME280;34202;52.536;6.042;2023-12-20T05:47:26;101349.45;;;5.98;100.00
48404;BME280;34202;52.536;6.042;2023-12-20T05:52:27;101343.65;;;6.01;100.00
48404;BME280;34202;52.536;6.042;2023-12-20T05:57:27;101342.36;;;6.04;100.00
48404;BME280;34202;52.536;6.042;2023-12-20T06:02:28;101335.55;;;6.07;100.00
48404;BME280;34202;52.536;6.042;2023-12-20T06:07:28;101334.95;;;6.09;100.00
48404;BME280;34202;52.536;6.042;2023-12-20T06:12:28;101338.67;;;6.12;100.00
48404;BME280;34202;52.536;6.042;2023-12-20T06:17:29;101331.54;;;6.16;100.00
48404;BME280;34202;52.536;6.042;2023-12-20T06:22:30;101333.23;;;6.20;100.00
48404;BME280;34202;52.536;6.042;2023-12-20T06:27:31;101328.47;;;6.23;100.00
48404;BME280;34202;52.536;6.042;2023-12-20T06:32:32;101322.88;;;6.26;100.00
48404;BME280;34202;52.536;6.042;2023-12-20T06:37:34;101320.33;;;6.28;100.00
48404;BME280;34202;52.536;6.042;2023-12-20T06:42:35;101322.13;;;6.30;100.00
48404;BME280;34202;52.536;6.042;2023-12-20T06:47:35;101328.08;;;6.32;100.00
48404;BME280;34202;52.536;6.042;2023-12-20T06:52:36;101329.73;;;6.35;100.00
48404;BME280;34202;52.536;6.042;2023-12-20T06:57:36;101324.58;;;6.36;100.00
48404;BME280;34202;52.536;6.042;2023-12-20T07:02:36;101322.39;;;6.38;100.00
48404;BME280;34202;52.536;6.042;2023-12-20T07:07:37;101316.20;;;6.39;100.00
48404;BME280;34202;52.536;6.042;2023-12-20T07:12:37;101311.94;;;6.41;100.00
48404;BME280;34202;52.536;6.042;2023-12-20T07:17:38;101302.98;;;6.43;100.00
48404;BME280;34202;52.536;6.042;2023-12-20T07:22:38;101297.17;;;6.45;100.00
48404;BME280;34202;52.536;6.042;2023-12-20T07:27:39;101296.20;;;6.47;100.00
48404;BME280;34202;52.536;6.042;2023-12-20T07:32:39;101289.00;;;6.49;100.00
48404;BME280;34202;52.536;6.042;2023-12-20T07:37:39;101288.57;;;6.51;100.00
48404;BME280;34202;52.536;6.042;2023-12-20T07:42:40;101288.98;;;6.54;100.00
48404;BME280;34202;52.536;6.042;2023-12-20T07:47:40;101292.34;;;6.56;100.00
48404;BME280;34202;52.536;6.042;2023-12-20T07:52:41;101304.34;;;6.59;100.00
48404;BME280;34202;52.536;6.042;2023-12-20T07:57:41;101318.23;;;6.61;100.00
48404;BME280;34202;52.536;6.042;2023-12-20T08:02:41;101322.83;;;6.64;100.00
48404;BME280;34202;52.536;6.042;2023-12-20T08:07:42;101324.30;;;6.67;100.00
48404;BME280;34202;52.536;6.042;2023-12-20T08:12:42;101322.36;;;6.71;100.00
48404;BME280;34202;52.536;6.042;2023-12-20T08:17:42;101326.61;;;6.74;100.00
48404;BME280;34202;52.536;6.042;2023-12-20T08:22:43;101323.92;;;6.77;100.00
48404;BME280;34202;52.536;6.042;2023-12-20T08:27:43;101324.91;;;6.81;100.00
48404;BME280;34202;52.536;6.042;2023-12-20T08:32:43;101318.46;;;6.86;100.00
48404;BME280;34202;52.536;6.042;2023-12-20T08:37:44;101318.60;;;6.90;100.00
48404;BME280;34202;52.536;6.042;2023-12-20T08:42:44;101308.65;;;6.93;100.00
48404;BME280;34202;52.536;6.042;2023-12-20T08:47:44;101312.89;;;6.96;100.00
48404;BME280;34202;52.536;6.042;2023-12-20T08:52:45;101311.63;;;7.00;100.00
48404;BME280;34202;52.536;6.042;2023-12-20T08:57:45;101315.89;;;7.04;100.00
48404;BME280;34202;52.536;6.042;2023-12-20T09:02:46;101319.27;;;7.07;100.00
48404;BME280;34202;52.536;6.042;2023-12-20T09:07:46;101319.48;;;7.08;100.00
48404;BME280;34202;52.536;6.042;2023-12-20T09:12:46;101320.77;;;7.11;100.00
48404;BME280;34202;52.536;6.042;2023-12-20T09:17:48;101313.27;;;7.15;100.00
48404;BME280;34202;52.536;6.042;2023-12-20T09:22:48;101317.54;;;7.20;100.00
48404;BME280;34202;52.536;6.042;2023-12-20T09:27:48;101314.04;;;7.24;100.00
48404;BME280;34202;52.536;6.042;2023-12-20T09:32:49;101319.73;;;7.30;100.00
48404;BME280;34202;52.536;6.042;2023-12-20T09:37:49;101318.98;;;7.34;100.00
48404;BME280;34202;52.536;6.042;2023-12-20T09:43:08;101320.48;;;7.39;100.00
48404;BME280;34202;52.536;6.042;2023-12-20T09:48:10;101324.80;;;7.44;100.00
48404;BME280;34202;52.536;6.042;2023-12-20T09:53:15;101322.19;;;7.50;100.00
48404;BME280;34202;52.536;6.042;2023-12-20T09:58:15;101326.98;;;7.55;100.00
48404;BME280;34202;52.536;6.042;2023-12-20T10:03:16;101323.00;;;7.61;100.00
48404;BME280;34202;52.536;6.042;2023-12-20T10:08:21;101327.03;;;7.69;100.00
48404;BME280;34202;52.536;6.042;2023-12-20T10:13:22;101329.13;;;7.77;100.00
48404;BME280;34202;52.536;6.042;2023-12-20T10:18:22;101335.36;;;7.83;100.00
48404;BME280;34202;52.536;6.042;2023-12-20T10:23:23;101330.27;;;7.87;100.00
48404;BME280;34202;52.536;6.042;2023-12-20T10:28:24;101331.14;;;7.88;100.00
48404;BME280;34202;52.536;6.042;2023-12-20T10:33:28;101330.75;;;7.86;100.00
48404;BME280;34202;52.536;6.042;2023-12-20T10:38:29;101334.67;;;7.84;100.00
48404;BME280;34202;52.536;6.042;2023-12-20T10:43:32;101326.52;;;7.83;100.00
48404;BME280;34202;52.536;6.042;2023-12-20T10:48:34;101339.00;;;7.83;100.00
48404;BME280;34202;52.536;6.042;2023-12-20T10:53:35;101372.16;;;7.73;100.00
48404;BME280;34202;52.536;6.042;2023-12-20T10:58:38;101360.58;;;7.48;100.00
48404;BME280;34202;52.536;6.042;2023-12-20T11:03:46;101353.54;;;7.25;100.00
48404;BME280;34202;52.536;6.042;2023-12-20T11:08:53;101344.14;;;7.11;100.00
48404;BME280;34202;52.536;6.042;2023-12-20T11:14:08;101335.15;;;7.06;100.00
48404;BME280;34202;52.536;6.042;2023-12-20T11:19:12;101342.36;;;7.04;100.00
48404;BME280;34202;52.536;6.042;2023-12-20T11:24:16;101338.96;;;7.06;100.00
48404;BME280;34202;52.536;6.042;2023-12-20T11:29:36;101343.40;;;7.04;100.00
48404;BME280;34202;52.536;6.042;2023-12-20T11:34:36;101331.75;;;6.96;100.00
48404;BME280;34202;52.536;6.042;2023-12-20T11:39:37;101335.74;;;6.90;100.00
48404;BME280;34202;52.536;6.042;2023-12-20T11:44:37;101331.67;;;6.87;100.00
48404;BME280;34202;52.536;6.042;2023-12-20T11:49:38;101322.94;;;6.85;100.00
48404;BME280;34202;52.536;6.042;2023-12-20T11:54:38;101312.65;;;6.82;100.00
48404;BME280;34202;52.536;6.042;2023-12-20T11:59:39;101306.91;;;6.81;100.00
48404;BME280;34202;52.536;6.042;2023-12-20T12:04:42;101299.52;;;6.83;100.00
48404;BME280;34202;52.536;6.042;2023-12-20T12:09:43;101298.27;;;6.82;100.00
48404;BME280;34202;52.536;6.042;2023-12-20T12:14:45;101295.71;;;6.77;100.00
48404;BME280;34202;52.536;6.042;2023-12-20T12:19:45;101289.74;;;6.73;100.00
48404;BME280;34202;52.536;6.042;2023-12-20T12:24:47;101282.80;;;6.73;100.00
48404;BME280;34202;52.536;6.042;2023-12-20T12:30:04;101269.48;;;6.72;100.00
48404;BME280;34202;52.536;6.042;2023-12-20T12:35:07;101270.70;;;6.73;100.00
48404;BME280;34202;52.536;6.042;2023-12-20T12:40:14;101263.36;;;6.76;100.00
48404;BME280;34202;52.536;6.042;2023-12-20T12:45:14;101249.44;;;6.79;100.00
48404;BME280;34202;52.536;6.042;2023-12-20T12:50:15;101239.34;;;6.83;100.00
48404;BME280;34202;52.536;6.042;2023-12-20T12:55:16;101229.40;;;6.87;100.00
48404;BME280;34202;52.536;6.042;2023-12-20T13:00:16;101219.46;;;6.90;100.00
48404;BME280;34202;52.536;6.042;2023-12-20T13:05:17;101213.14;;;6.93;100.00
48404;BME280;34202;52.536;6.042;2023-12-20T13:10:17;101210.11;;;6.96;100.00
48404;BME280;34202;52.536;6.042;2023-12-20T13:15:18;101202.62;;;7.01;100.00
48404;BME280;34202;52.536;6.042;2023-12-20T13:20:18;101198.79;;;7.07;100.00
48404;BME280;34202;52.536;6.042;2023-12-20T13:25:19;101193.45;;;7.14;100.00
48404;BME280;34202;52.536;6.042;2023-12-20T13:30:19;101187.05;;;7.21;100.00
48404;BME280;34202;52.536;6.042;2023-12-20T13:38:47;101174.67;;;7.31;100.00
48404;BME280;34202;52.536;6.042;2023-12-20T13:43:48;101165.04;;;7.34;100.00
48404;BME280;34202;52.536;6.042;2023-12-20T13:48:48;101159.73;;;7.36;100.00
48404;BME280;34202;52.536;6.042;2023-12-20T13:53:49;101155.26;;;7.38;100.00
48404;BME280;34202;52.536;6.042;2023-12-20T13:58:50;101147.00;;;7.40;100.00
48404;BME280;34202;52.536;6.042;2023-12-20T14:03:50;101151.39;;;7.42;100.00
48404;BME280;34202;52.536;6.042;2023-12-20T14:08:51;101150.77;;;7.45;100.00
48404;BME280;34202;52.536;6.042;2023-12-20T14:13:51;101146.80;;;7.46;100.00
48404;BME280;34202;52.536;6.042;2023-12-20T14:18:51;101145.08;;;7.46;100.00
48404;BME280;34202;52.536;6.042;2023-12-20T14:23:52;101150.80;;;7.46;100.00
48404;BME280;34202;52.536;6.042;2023-12-20T14:28:52;101155.67;;;7.47;100.00
48404;BME280;34202;52.536;6.042;2023-12-20T14:33:53;101158.12;;;7.48;100.00
48404;BME280;34202;52.536;6.042;2023-12-20T14:38:54;101152.08;;;7.48;100.00
48404;BME280;34202;52.536;6.042;2023-12-20T14:43:55;101151.02;;;7.48;100.00
48404;BME280;34202;52.536;6.042;2023-12-20T14:48:55;101159.52;;;7.48;100.00
48404;BME280;34202;52.536;6.042;2023-12-20T14:53:56;101168.66;;;7.47;100.00
48404;BME280;34202;52.536;6.042;2023-12-20T14:58:56;101166.91;;;7.46;100.00
48404;BME280;34202;52.536;6.042;2023-12-20T15:03:57;101166.21;;;7.46;100.00
48404;BME280;34202;52.536;6.042;2023-12-20T15:08:57;101168.30;;;7.46;100.00
48404;BME280;34202;52.536;6.042;2023-12-20T15:13:58;101149.27;;;7.47;100.00
48404;BME280;34202;52.536;6.042;2023-12-20T15:19:00;101146.16;;;7.48;100.00
48404;BME280;34202;52.536;6.042;2023-12-20T15:24:00;101142.72;;;7.48;100.00
48404;BME280;34202;52.536;6.042;2023-12-20T15:29:14;101130.75;;;7.48;100.00
48404;BME280;34202;52.536;6.042;2023-12-20T15:34:14;101131.60;;;7.47;100.00
48404;BME280;34202;52.536;6.042;2023-12-20T15:39:15;101121.73;;;7.47;100.00
48404;BME280;34202;52.536;6.042;2023-12-20T15:44:16;101119.64;;;7.47;100.00
48404;BME280;34202;52.536;6.042;2023-12-20T15:49:16;101110.52;;;7.48;100.00
48404;BME280;34202;52.536;6.042;2023-12-20T15:54:18;101099.42;;;7.49;100.00
48404;BME280;34202;52.536;6.042;2023-12-20T15:59:19;101098.91;;;7.49;100.00
48404;BME280;34202;52.536;6.042;2023-12-20T16:04:19;101104.11;;;7.49;100.00
48404;BME280;34202;52.536;6.042;2023-12-20T16:09:20;101096.14;;;7.49;100.00
48404;BME280;34202;52.536;6.042;2023-12-20T16:14:20;101082.66;;;7.50;100.00
48404;BME280;34202;52.536;6.042;2023-12-20T16:19:21;101075.07;;;7.51;100.00
48404;BME280;34202;52.536;6.042;2023-12-20T16:24:21;101074.54;;;7.50;100.00
48404;BME280;34202;52.536;6.042;2023-12-20T16:29:21;101062.90;;;7.49;100.00
48404;BME280;34202;52.536;6.042;2023-12-20T16:34:22;101056.50;;;7.50;100.00
48404;BME280;34202;52.536;6.042;2023-12-20T16:39:23;101046.97;;;7.49;100.00
48404;BME280;34202;52.536;6.042;2023-12-20T16:44:23;101030.34;;;7.49;100.00
48404;BME280;34202;52.536;6.042;2023-12-20T16:49:24;101019.97;;;7.50;100.00
48404;BME280;34202;52.536;6.042;2023-12-20T16:54:24;101007.64;;;7.48;100.00
48404;BME280;34202;52.536;6.042;2023-12-20T16:59:24;101005.21;;;7.48;100.00
48404;BME280;34202;52.536;6.042;2023-12-20T17:04:25;100994.98;;;7.48;100.00
48404;BME280;34202;52.536;6.042;2023-12-20T17:09:25;100987.70;;;7.47;100.00
48404;BME280;34202;52.536;6.042;2023-12-20T17:14:27;100976.27;;;7.47;100.00
48404;BME280;34202;52.536;6.042;2023-12-20T17:19:27;100968.64;;;7.47;100.00
48404;BME280;34202;52.536;6.042;2023-12-20T17:24:30;100960.15;;;7.47;100.00
48404;BME280;34202;52.536;6.042;2023-12-20T17:29:30;100948.69;;;7.46;100.00
48404;BME280;34202;52.536;6.042;2023-12-20T17:34:30;100942.98;;;7.46;100.00
48404;BME280;34202;52.536;6.042;2023-12-20T17:39:31;100934.84;;;7.45;100.00
48404;BME280;34202;52.536;6.042;2023-12-20T17:44:31;100927.55;;;7.44;100.00
48404;BME280;34202;52.536;6.042;2023-12-20T17:49:31;100920.62;;;7.44;100.00
48404;BME280;34202;52.536;6.042;2023-12-20T17:54:33;100912.11;;;7.44;100.00
48404;BME280;34202;52.536;6.042;2023-12-20T17:59:34;100909.34;;;7.44;100.00
48404;BME280;34202;52.536;6.042;2023-12-20T18:04:34;100900.86;;;7.44;100.00
48404;BME280;34202;52.536;6.042;2023-12-20T18:09:35;100899.50;;;7.45;100.00
48404;BME280;34202;52.536;6.042;2023-12-20T18:14:35;100882.90;;;7.45;100.00
48404;BME280;34202;52.536;6.042;2023-12-20T18:19:35;100872.18;;;7.47;100.00
48404;BME280;34202;52.536;6.042;2023-12-20T18:24:36;100866.33;;;7.49;100.00
48404;BME280;34202;52.536;6.042;2023-12-20T18:29:36;100858.75;;;7.51;100.00
48404;BME280;34202;52.536;6.042;2023-12-20T18:34:36;100850.30;;;7.52;100.00
48404;BME280;34202;52.536;6.042;2023-12-20T18:39:37;100851.38;;;7.55;100.00
48404;BME280;34202;52.536;6.042;2023-12-20T18:44:38;100834.98;;;7.58;100.00
48404;BME280;34202;52.536;6.042;2023-12-20T18:49:39;100831.21;;;7.60;100.00
48404;BME280;34202;52.536;6.042;2023-12-20T18:54:39;100827.11;;;7.63;100.00
48404;BME280;34202;52.536;6.042;2023-12-20T18:59:40;100825.95;;;7.66;100.00
48404;BME280;34202;52.536;6.042;2023-12-20T19:04:40;100809.38;;;7.69;100.00
48404;BME280;34202;52.536;6.042;2023-12-20T19:09:41;100808.89;;;7.71;100.00
48404;BME280;34202;52.536;6.042;2023-12-20T19:14:41;100803.89;;;7.72;100.00
48404;BME280;34202;52.536;6.042;2023-12-20T19:19:42;100798.05;;;7.74;100.00
48404;BME280;34202;52.536;6.042;2023-12-20T19:24:42;100789.59;;;7.77;100.00
48404;BME280;34202;52.536;6.042;2023-12-20T19:29:43;100776.64;;;7.79;100.00
48404;BME280;34202;52.536;6.042;2023-12-20T19:34:43;100777.21;;;7.82;100.00
48404;BME280;34202;52.536;6.042;2023-12-20T19:39:44;100772.07;;;7.86;100.00
48404;BME280;34202;52.536;6.042;2023-12-20T19:44:44;100757.21;;;7.89;100.00
48404;BME280;34202;52.536;6.042;2023-12-20T19:49:45;100753.97;;;7.91;100.00
48404;BME280;34202;52.536;6.042;2023-12-20T19:54:45;100756.09;;;7.93;100.00
48404;BME280;34202;52.536;6.042;2023-12-20T19:59:46;100758.91;;;7.96;100.00
48404;BME280;34202;52.536;6.042;2023-12-20T20:04:46;100757.73;;;7.99;100.00
48404;BME280;34202;52.536;6.042;2023-12-20T20:09:47;100756.54;;;8.01;100.00
48404;BME280;34202;52.536;6.042;2023-12-20T20:14:47;100753.45;;;8.02;100.00
48404;BME280;34202;52.536;6.042;2023-12-20T20:19:47;100740.32;;;8.05;100.00
48404;BME280;34202;52.536;6.042;2023-12-20T20:24:48;100742.08;;;8.07;100.00
48404;BME280;34202;52.536;6.042;2023-12-20T20:29:48;100748.50;;;8.07;100.00
48404;BME280;34202;52.536;6.042;2023-12-20T20:34:49;100743.16;;;8.09;100.00
48404;BME280;34202;52.536;6.042;2023-12-20T20:39:49;100733.30;;;8.10;100.00
48404;BME280;34202;52.536;6.042;2023-12-20T20:44:50;100730.89;;;8.12;100.00
48404;BME280;34202;52.536;6.042;2023-12-20T20:49:50;100726.96;;;8.16;100.00
48404;BME280;34202;52.536;6.042;2023-12-20T20:54:51;100716.77;;;8.18;100.00
48404;BME280;34202;52.536;6.042;2023-12-20T20:59:51;100718.36;;;8.21;100.00
48404;BME280;34202;52.536;6.042;2023-12-20T21:04:51;100722.39;;;8.22;100.00
48404;BME280;34202;52.536;6.042;2023-12-20T21:09:52;100706.27;;;8.24;100.00
48404;BME280;34202;52.536;6.042;2023-12-20T21:14:52;100689.46;;;8.25;100.00
48404;BME280;34202;52.536;6.042;2023-12-20T21:19:53;100680.12;;;8.26;100.00
48404;BME280;34202;52.536;6.042;2023-12-20T21:24:53;100672.69;;;8.27;100.00
48404;BME280;34202;52.536;6.042;2023-12-20T21:29:53;100666.80;;;8.29;100.00
48404;BME280;34202;52.536;6.042;2023-12-20T21:34:54;100669.08;;;8.30;100.00
48404;BME280;34202;52.536;6.042;2023-12-20T21:39:54;100659.04;;;8.30;100.00
48404;BME280;34202;52.536;6.042;2023-12-20T21:44:54;100673.09;;;8.32;100.00
48404;BME280;34202;52.536;6.042;2023-12-20T21:49:55;100685.94;;;8.33;100.00
48404;BME280;34202;52.536;6.042;2023-12-20T21:54:55;100684.05;;;8.35;100.00
48404;BME280;34202;52.536;6.042;2023-12-20T21:59:55;100691.52;;;8.36;100.00
48404;BME280;34202;52.536;6.042;2023-12-20T22:04:56;100697.27;;;8.38;100.00
48404;BME280;34202;52.536;6.042;2023-12-20T22:09:56;100704.42;;;8.40;100.00
48404;BME280;34202;52.536;6.042;2023-12-20T22:14:56;100694.77;;;8.42;100.00
48404;BME280;34202;52.536;6.042;2023-12-20T22:19:57;100680.59;;;8.45;100.00
48404;BME280;34202;52.536;6.042;2023-12-20T22:24:57;100680.60;;;8.46;100.00
48404;BME280;34202;52.536;6.042;2023-12-20T22:29:57;100673.70;;;8.48;100.00
48404;BME280;34202;52.536;6.042;2023-12-20T22:34:58;100668.67;;;8.50;100.00
48404;BME280;34202;52.536;6.042;2023-12-20T22:39:58;100657.27;;;8.53;100.00
48404;BME280;34202;52.536;6.042;2023-12-20T22:44:59;100650.02;;;8.56;100.00
48404;BME280;34202;52.536;6.042;2023-12-20T22:49:59;100647.42;;;8.57;100.00
48404;BME280;34202;52.536;6.042;2023-12-20T22:54:59;100632.68;;;8.58;100.00
48404;BME280;34202;52.536;6.042;2023-12-20T23:00:00;100628.72;;;8.59;100.00
48404;BME280;34202;52.536;6.042;2023-12-20T23:05:01;100625.25;;;8.60;100.00
48404;BME280;34202;52.536;6.042;2023-12-20T23:10:02;100615.04;;;8.61;100.00
48404;BME280;34202;52.536;6.042;2023-12-20T23:15:03;100609.12;;;8.60;100.00
48404;BME280;34202;52.536;6.042;2023-12-20T23:20:05;100611.21;;;8.61;100.00
48404;BME280;34202;52.536;6.042;2023-12-20T23:25:06;100593.00;;;8.62;100.00
48404;BME280;34202;52.536;6.042;2023-12-20T23:30:07;100578.98;;;8.63;100.00
48404;BME280;34202;52.536;6.042;2023-12-20T23:35:08;100561.80;;;8.63;100.00
48404;BME280;34202;52.536;6.042;2023-12-20T23:40:08;100566.14;;;8.64;100.00
48404;BME280;34202;52.536;6.042;2023-12-20T23:45:09;100564.25;;;8.65;100.00
48404;BME280;34202;52.536;6.042;2023-12-20T23:50:10;100572.07;;;8.66;100.00
48404;BME280;34202;52.536;6.042;2023-12-20T23:55:11;100567.92;;;8.68;100.00
